Time;durP1;ratioP1;P1;durP2;ratioP2;P2;SDS_P1;SDS_P2;PMS_P1;PMS_P2;Temp;Humidity;BMP_temperature;BMP_pressure;BME280_temperature;BME280_humidity;BME280_pressure;Samples;Min_cycle;Max_cycle;Signal;HPM_P1;HPM_P2
2021/07/29 00:00:23;;;;;;;7.25;3.42;;;28.20;38.70;;;;;;20120639;29;80895;-67
2021/07/29 00:10:26;;;;;;;8.50;3.45;;;28.20;39.50;;;;;;20132844;28;80860;-68
2021/07/29 00:20:28;;;;;;;7.20;3.15;;;28.20;40.90;;;;;;20133945;28;81130;-67
2021/07/29 00:30:30;;;;;;;6.45;3.00;;;28.00;41.50;;;;;;20133330;29;80270;-66
2021/07/29 00:40:32;;;;;;;6.78;3.15;;;27.90;42.50;;;;;;20131930;28;81071;-66
2021/07/29 00:50:33;;;;;;;6.25;3.00;;;27.60;42.80;;;;;;20131941;29;80748;-67
2021/07/29 01:00:35;;;;;;;9.43;3.42;;;27.70;42.60;;;;;;20131384;29;80830;-67
2021/07/29 01:10:36;;;;;;;7.68;3.03;;;27.70;43.20;;;;;;20135416;29;81660;-66
2021/07/29 01:20:40;;;;;;;8.25;3.38;;;27.60;43.30;;;;;;20128688;29;81798;-66
2021/07/29 01:30:42;;;;;;;9.20;3.47;;;27.60;43.80;;;;;;20133418;28;81236;-66
2021/07/29 01:40:45;;;;;;;7.07;3.08;;;27.40;44.60;;;;;;20141796;28;80760;-66
2021/07/29 01:50:57;;;;;;;6.25;3.78;;;27.30;45.30;;;;;;20139471;29;81004;-66
2021/07/29 02:00:59;;;;;;;7.82;4.00;;;27.40;46.30;;;;;;20140461;29;80814;-65
2021/07/29 02:11:05;;;;;;;7.97;3.60;;;27.20;48.00;;;;;;20142022;28;80761;-66
2021/07/29 02:21:11;;;;;;;9.52;3.55;;;27.10;48.90;;;;;;20141923;29;80367;-65
2021/07/29 02:31:13;;;;;;;8.25;3.83;;;27.00;50.10;;;;;;20142464;28;80726;-66
2021/07/29 02:41:19;;;;;;;6.10;3.25;;;26.60;51.70;;;;;;20144175;29;80371;-66
2021/07/29 02:51:37;;;;;;;8.00;4.63;;;26.40;52.80;;;;;;20113398;29;81562;-67
2021/07/29 03:01:44;;;;;;;7.80;3.78;;;26.20;53.70;;;;;;20142254;28;81673;-66
2021/07/29 03:11:47;;;;;;;10.48;3.60;;;26.20;54.10;;;;;;20136508;28;80776;-66
2021/07/29 03:21:53;;;;;;;8.40;4.28;;;26.10;54.60;;;;;;20137748;28;80860;-67
2021/07/29 03:31:58;;;;;;;6.70;3.60;;;26.20;53.90;;;;;;20134653;29;80593;-67
2021/07/29 03:42:03;;;;;;;13.77;3.78;;;26.10;54.50;;;;;;20136679;29;80724;-66
2021/07/29 03:52:06;;;;;;;6.32;3.72;;;25.90;55.50;;;;;;20129377;28;80230;-67
2021/07/29 04:02:10;;;;;;;7.82;3.88;;;25.90;55.50;;;;;;20135111;29;81038;-66
2021/07/29 04:12:13;;;;;;;8.10;4.55;;;25.90;55.20;;;;;;20131321;28;80880;-65
2021/07/29 04:22:17;;;;;;;6.57;4.10;;;25.90;54.80;;;;;;20132198;29;80775;-66
2021/07/29 04:32:20;;;;;;;5.72;3.42;;;25.90;55.50;;;;;;20135067;29;80656;-67
2021/07/29 04:42:24;;;;;;;7.10;3.47;;;25.60;56.50;;;;;;20128540;29;80807;-66
2021/07/29 04:52:28;;;;;;;8.23;3.72;;;25.50;56.70;;;;;;20108875;29;80481;-67
2021/07/29 05:02:30;;;;;;;9.80;5.15;;;25.50;56.70;;;;;;20133245;29;80833;-67
2021/07/29 05:12:32;;;;;;;8.25;4.03;;;25.40;57.20;;;;;;20139734;28;80741;-66
2021/07/29 05:22:34;;;;;;;8.40;3.67;;;25.40;56.90;;;;;;20143493;29;80440;-67
2021/07/29 05:32:35;;;;;;;7.22;4.07;;;25.40;56.90;;;;;;20145360;28;80390;-67
2021/07/29 05:42:39;;;;;;;8.85;3.88;;;25.40;56.70;;;;;;20139790;28;80773;-67
2021/07/29 05:52:41;;;;;;;7.05;3.97;;;25.40;56.80;;;;;;20235529;28;80955;-66
2021/07/29 06:02:45;;;;;;;11.43;5.03;;;25.50;57.00;;;;;;20142420;28;80797;-67
2021/07/29 06:12:47;;;;;;;11.00;4.38;;;25.40;57.30;;;;;;20143005;29;80520;-67
2021/07/29 06:22:50;;;;;;;8.18;4.82;;;25.40;57.70;;;;;;20136294;28;81298;-68
2021/07/29 06:32:52;;;;;;;9.85;4.32;;;25.40;58.00;;;;;;20136503;28;80988;-67
2021/07/29 06:42:55;;;;;;;10.20;4.60;;;25.40;58.20;;;;;;20144875;28;80770;-67
2021/07/29 06:52:57;;;;;;;6.47;3.53;;;25.50;57.20;;;;;;20127165;28;80886;-67
2021/07/29 07:03:00;;;;;;;11.55;6.50;;;25.80;56.90;;;;;;20126082;28;81087;-67
2021/07/29 07:13:04;;;;;;;11.95;5.18;;;25.90;56.10;;;;;;20129174;28;82847;-67
2021/07/29 07:23:06;;;;;;;15.90;7.68;;;25.90;55.70;;;;;;20133365;28;81489;-70
2021/07/29 07:33:09;;;;;;;8.93;4.10;;;26.00;55.50;;;;;;20126832;28;80780;-68
2021/07/29 07:43:12;;;;;;;9.68;4.60;;;26.00;55.00;;;;;;20123764;28;81215;-70
2021/07/29 07:53:14;;;;;;;8.23;5.38;;;26.20;54.80;;;;;;20135722;28;81035;-68
2021/07/29 08:03:17;;;;;;;9.85;5.40;;;26.20;54.10;;;;;;20197602;28;81287;-68
2021/07/29 08:13:20;;;;;;;11.82;4.88;;;26.40;54.10;;;;;;20129452;28;81240;-67
2021/07/29 08:23:22;;;;;;;7.40;4.90;;;26.60;53.80;;;;;;20166068;28;80789;-68
2021/07/29 08:33:26;;;;;;;11.55;5.35;;;26.90;53.60;;;;;;20155667;28;80733;-67
2021/07/29 08:43:32;;;;;;;14.77;4.72;;;26.90;53.00;;;;;;20231567;28;80723;-68
2021/07/29 08:53:34;;;;;;;11.73;4.43;;;27.00;52.30;;;;;;20167106;28;80782;-68
2021/07/29 09:03:36;;;;;;;9.95;4.57;;;27.20;51.80;;;;;;20175519;28;80750;-68
2021/07/29 09:13:42;;;;;;;12.55;5.00;;;27.40;51.60;;;;;;20146322;28;81488;-69
2021/07/29 09:23:44;;;;;;;10.60;4.88;;;27.70;51.20;;;;;;20148176;28;82585;-69
2021/07/29 09:33:57;;;;;;;8.52;5.30;;;28.20;50.00;;;;;;20127976;28;80853;-69
2021/07/29 09:43:59;;;;;;;13.55;5.15;;;28.50;48.40;;;;;;20111710;29;82125;-67
2021/07/29 09:54:02;;;;;;;15.00;5.68;;;28.80;47.40;;;;;;20108063;29;80845;-68
2021/07/29 10:04:09;;;;;;;17.58;5.38;;;29.40;46.70;;;;;;20189463;28;80794;-68
2021/07/29 10:14:13;;;;;;;8.65;5.07;;;29.80;45.10;;;;;;20128947;28;81718;-69
2021/07/29 10:24:15;;;;;;;16.80;5.53;;;30.10;44.60;;;;;;20099819;29;81179;-67
2021/07/29 10:34:25;;;;;;;18.67;5.35;;;30.50;43.90;;;;;;20130192;28;81874;-69
2021/07/29 10:44:36;;;;;;;;;;;30.90;43.10;;;;;;20132167;28;81611;-70
2021/07/29 10:54:43;;;;;;;16.60;5.87;;;31.50;41.50;;;;;;20183541;28;81777;-69
2021/07/29 11:05:16;;;;;;;13.68;8.93;;;35.00;35.50;;;;;;20185306;28;82180;-69
2021/07/29 11:15:18;;;;;;;13.30;6.90;;;35.50;34.60;;;;;;20150707;28;80991;-68
2021/07/29 11:25:20;;;;;;;9.35;5.68;;;37.30;31.40;;;;;;20180099;28;80974;-67
2021/07/29 11:35:27;;;;;;;8.43;5.07;;;39.90;28.30;;;;;;20118290;28;81490;-67
2021/07/29 11:45:33;;;;;;;9.52;5.32;;;42.00;25.40;;;;;;20130589;28;81197;-70
2021/07/29 11:55:36;;;;;;;14.60;4.95;;;42.90;23.60;;;;;;20113249;28;80785;-70
2021/07/29 12:05:42;;;;;;;7.90;4.85;;;43.00;23.50;;;;;;20156287;28;80928;-71
2021/07/29 12:15:52;;;;;;;8.13;4.45;;;42.10;23.10;;;;;;20123231;28;80939;-72
2021/07/29 12:25:57;;;;;;;5.65;4.78;;;42.20;23.00;;;;;;20122920;28;81025;-70
2021/07/29 12:36:00;;;;;;;6.57;5.20;;;44.10;21.50;;;;;;20095930;29;81946;-71
2021/07/29 12:46:07;;;;;;;5.65;4.15;;;46.80;19.50;;;;;;20130849;28;81689;-71
2021/07/29 12:56:15;;;;;;;5.70;4.50;;;45.70;20.00;;;;;;20107925;28;81907;-70
2021/07/29 13:06:17;;;;;;;13.55;7.03;;;44.80;20.00;;;;;;20081729;29;81893;-71
2021/07/29 13:16:19;;;;;;;11.52;5.05;;;46.60;19.00;;;;;;20104399;29;84111;-71
2021/07/29 13:26:21;;;;;;;12.50;5.93;;;47.60;18.20;;;;;;20125468;28;81364;-71
2021/07/29 13:36:23;;;;;;;7.72;5.13;;;48.40;17.80;;;;;;20137725;28;80999;-70
2021/07/29 13:46:25;;;;;;;7.22;4.60;;;48.40;17.40;;;;;;20141347;29;81194;-70
2021/07/29 13:56:27;;;;;;;8.32;4.50;;;46.80;18.00;;;;;;20141324;28;81915;-71
2021/07/29 14:06:32;;;;;;;9.50;4.63;;;40.90;21.60;;;;;;20142499;28;80741;-69
2021/07/29 14:16:34;;;;;;;6.18;3.90;;;38.50;23.20;;;;;;20137874;28;80848;-71
2021/07/29 14:26:36;;;;;;;27.48;8.35;;;37.50;23.90;;;;;;20125929;28;81216;-70
2021/07/29 14:36:38;;;;;;;6.80;3.90;;;37.00;25.40;;;;;;20109943;28;81531;-71
2021/07/29 14:56:48;;;;;;;6.22;4.00;;;35.90;25.70;;;;;;20092973;28;80836;-71
2021/07/29 16:09:06;;;;;;;7.07;3.92;;;34.30;25.80;;;;;;20112541;28;80606;-71
2021/07/29 16:19:09;;;;;;;7.45;3.45;;;34.40;25.20;;;;;;20103120;28;80977;-70
2021/07/29 16:29:12;;;;;;;10.50;4.13;;;34.30;25.00;;;;;;20112034;28;82208;-69
2021/07/29 16:39:14;;;;;;;10.95;3.85;;;34.20;25.90;;;;;;20066997;29;83153;-71
2021/07/29 16:49:16;;;;;;;7.10;3.88;;;33.90;25.90;;;;;;20120785;28;81477;-71
2021/07/29 16:59:19;;;;;;;5.82;3.55;;;33.70;26.20;;;;;;20121616;28;81241;-72
2021/07/29 17:09:21;;;;;;;7.47;4.00;;;33.50;26.40;;;;;;20132014;29;80805;-72
2021/07/29 17:19:26;;;;;;;5.25;3.80;;;33.40;27.30;;;;;;20145360;28;81148;-72
2021/07/29 17:29:32;;;;;;;49.33;20.85;;;33.30;27.60;;;;;;20136222;28;81299;-73
2021/07/29 17:39:34;;;;;;;12.60;6.80;;;33.20;28.00;;;;;;20111373;28;83346;-74
2021/07/29 17:49:36;;;;;;;8.77;5.63;;;32.70;28.40;;;;;;20168957;28;83315;-73
2021/07/29 17:59:38;;;;;;;7.82;5.03;;;32.70;28.20;;;;;;20153264;28;81052;-72
2021/07/29 18:09:40;;;;;;;9.15;4.68;;;32.70;28.00;;;;;;20129673;29;80731;-71
2021/07/29 18:19:41;;;;;;;9.40;4.55;;;32.60;28.50;;;;;;20133422;29;81733;-73
